Time;durP1;ratioP1;P1;durP2;ratioP2;P2;SDS_P1;SDS_P2;PMS_P1;PMS_P2;Temp;Humidity;BMP_temperature;BMP_pressure;BME280_temperature;BME280_humidity;BME280_pressure;Samples;Min_cycle;Max_cycle;Signal;HPM_P1;HPM_P2
2022/10/30 00:01:21;;;;;;;10.43;2.50;;;;;;;12.69;69.62;101551.66;1748291;82;21756;-87
2022/10/30 00:03:47;;;;;;;6.70;2.67;;;;;;;12.66;69.62;101547.19;1725568;83;21114;-87
2022/10/30 00:06:14;;;;;;;8.18;2.65;;;;;;;12.64;69.61;101548.89;1724674;83;21046;-87
2022/10/30 00:08:41;;;;;;;6.92;3.52;;;;;;;12.60;69.61;101554.95;1725190;83;21255;-89
2022/10/30 00:11:24;;;;;;;7.17;2.60;;;;;;;12.53;69.61;101538.44;1725628;83;21074;-90
2022/10/30 00:14:05;;;;;;;8.25;2.90;;;;;;;12.47;69.64;101540.47;1725621;83;22519;-90
2022/10/30 00:16:33;;;;;;;5.95;2.95;;;;;;;12.42;69.74;101542.07;1725498;83;21019;-90
2022/10/30 00:19:28;;;;;;;7.58;2.80;;;;;;;12.37;69.83;101554.23;1725605;83;21090;-90
2022/10/30 00:21:57;;;;;;;8.10;2.80;;;;;;;12.33;69.95;101561.19;1725469;83;21190;-91
2022/10/30 00:24:39;;;;;;;5.55;3.10;;;;;;;12.11;70.07;101532.34;1725279;83;21855;-89
2022/10/30 00:27:06;;;;;;;11.08;4.37;;;;;;;12.28;70.20;101563.22;1725647;83;22009;-89
2022/10/30 00:29:35;;;;;;;6.50;2.90;;;;;;;12.24;70.28;101551.23;1725218;83;21051;-90
2022/10/30 00:32:02;;;;;;;8.93;3.05;;;;;;;12.23;70.36;101552.06;1725579;83;21050;-90
2022/10/30 00:34:29;;;;;;;9.58;3.30;;;;;;;12.23;70.43;101553.38;1725624;83;21030;-90
2022/10/30 00:36:56;;;;;;;10.48;2.87;;;;;;;12.23;70.53;101557.34;1725165;83;21010;-90
2022/10/30 00:39:30;;;;;;;5.10;2.75;;;;;;;12.25;70.59;101553.44;1725611;83;21773;-89
2022/10/30 00:41:57;;;;;;;11.38;3.33;;;;;;;12.25;70.63;101545.52;1725463;83;21050;-90
2022/10/30 00:44:47;;;;;;;9.38;3.72;;;;;;;12.27;70.66;101527.98;1725306;83;21058;-90
2022/10/30 00:47:31;;;;;;;8.33;3.40;;;;;;;12.28;70.69;101544.73;1724827;83;21055;-90
2022/10/30 00:50:26;;;;;;;7.08;2.92;;;;;;;12.28;70.76;101553.55;1725128;83;27118;-90
2022/10/30 00:53:10;;;;;;;9.58;2.90;;;;;;;12.28;70.78;101552.66;1728796;82;21771;-90
2022/10/30 00:55:41;;;;;;;6.42;2.92;;;;;;;12.27;70.85;101545.14;1729772;82;21279;-89
2022/10/30 00:58:09;;;;;;;8.40;2.70;;;;;;;12.25;70.91;101541.56;1730200;82;21049;-90
2022/10/30 01:00:36;;;;;;;7.67;3.15;;;;;;;12.24;70.95;101554.30;1730106;82;21030;-90
2022/10/30 01:03:03;;;;;;;7.95;2.92;;;;;;;12.21;71.03;101558.16;1730518;82;21393;-91
2022/10/30 01:05:30;;;;;;;8.58;2.62;;;;;;;12.20;71.10;101551.99;1730417;82;21781;-90
2022/10/30 01:07:57;;;;;;;14.45;3.08;;;;;;;12.21;71.19;101553.77;1730189;82;21074;-88
2022/10/30 01:10:24;;;;;;;12.63;3.22;;;;;;;12.22;71.26;101555.57;1730649;82;21066;-89
2022/10/30 01:12:51;;;;;;;11.57;4.87;;;;;;;12.21;71.30;101563.00;1730031;82;21600;-90
2022/10/30 01:15:19;;;;;;;7.10;3.60;;;;;;;12.23;71.36;101569.22;1730548;82;21586;-89
2022/10/30 01:18:11;;;;;;;5.60;2.80;;;;;;;12.24;71.43;101558.27;1730405;82;21225;-89
2022/10/30 01:21:01;;;;;;;6.22;3.10;;;;;;;12.22;71.39;101562.60;1730206;82;21085;-89
2022/10/30 01:23:45;;;;;;;10.90;4.72;;;;;;;12.21;71.46;101562.12;1729963;81;21074;-89
2022/10/30 01:26:24;;;;;;;5.60;2.75;;;;;;;12.19;71.52;101566.02;1729989;82;21121;-89
2022/10/30 01:29:23;;;;;;;7.40;4.05;;;;;;;12.16;71.59;101560.67;1730490;82;21085;-89
2022/10/30 01:32:21;;;;;;;8.45;3.33;;;;;;;12.15;71.66;101569.84;1730474;81;21800;-90
2022/10/30 01:35:49;;;;;;;10.23;3.55;;;;;;;12.11;71.81;101564.01;1699169;82;21145;-89
2022/10/30 01:38:35;;;;;;;9.65;2.52;;;;;;;12.07;71.89;101551.14;1730704;82;21531;-89
2022/10/30 01:41:02;;;;;;;12.53;3.47;;;;;;;12.05;71.95;101548.87;1731230;82;21084;-90
2022/10/30 01:43:29;;;;;;;9.60;2.80;;;;;;;12.04;72.05;101558.94;1731542;81;21067;-90
2022/10/30 01:46:15;;;;;;;8.75;2.85;;;;;;;12.00;72.10;101551.35;1731178;81;21751;-91
2022/10/30 01:49:32;;;;;;;8.88;2.50;;;;;;;12.00;72.13;101553.10;1729792;81;21050;-89
2022/10/30 01:52:25;;;;;;;8.18;2.90;;;;;;;11.97;72.18;101545.96;1725187;82;21556;-90
2022/10/30 01:55:39;;;;;;;8.18;2.60;;;;;;;11.94;72.28;101545.89;1706814;83;21404;-90
2022/10/30 01:58:20;;;;;;;9.10;3.42;;;;;;;11.91;72.38;101548.41;1673454;85;21059;-90
2022/10/30 02:00:52;;;;;;;6.60;2.92;;;;;;;11.90;72.47;101551.00;1672407;83;21966;-90
2022/10/30 02:03:19;;;;;;;10.00;2.83;;;;;;;11.89;72.53;101550.08;1673176;85;21103;-89
2022/10/30 02:05:49;;;;;;;5.30;2.40;;;;;;;11.87;72.58;101555.73;1655316;85;21066;-90
2022/10/30 02:08:22;;;;;;;6.50;2.70;;;;;;;11.83;72.61;101554.73;1673050;85;21067;-90
2022/10/30 02:10:50;;;;;;;7.30;3.70;;;;;;;11.80;72.67;101559.00;1673485;85;21636;-89
2022/10/30 02:13:17;;;;;;;8.53;3.08;;;;;;;11.76;72.71;101561.08;1672958;85;21870;-89
2022/10/30 02:15:44;;;;;;;12.70;3.83;;;;;;;11.71;72.76;101562.66;1673241;85;21035;-89
2022/10/30 02:18:11;;;;;;;6.42;2.85;;;;;;;11.65;72.83;101560.28;1673506;85;21047;-89
2022/10/30 02:20:38;;;;;;;10.30;3.65;;;;;;;11.61;72.90;101557.06;1672982;85;21115;-90
2022/10/30 02:23:05;;;;;;;9.45;3.52;;;;;;;11.55;73.01;101557.30;1655559;85;21148;-89
2022/10/30 02:25:32;;;;;;;9.50;3.20;;;;;;;11.48;73.06;101547.84;1672972;85;21829;-90
2022/10/30 02:27:59;;;;;;;10.85;3.30;;;;;;;11.41;73.22;101549.83;1673357;85;21592;-90
2022/10/30 02:30:26;;;;;;;7.97;3.47;;;;;;;11.36;73.32;101539.97;1673406;85;21075;-90
2022/10/30 02:33:23;;;;;;;11.25;3.85;;;;;;;11.32;73.48;101543.31;1673406;85;21036;-90
2022/10/30 02:35:51;;;;;;;10.68;3.80;;;;;;;11.27;73.61;101553.28;1673220;85;21119;-89
2022/10/30 02:38:31;;;;;;;8.65;2.98;;;;;;;11.21;73.74;101553.08;1673311;85;22584;-90
2022/10/30 02:41:05;;;;;;;7.70;3.15;;;;;;;11.16;73.88;101536.19;1673114;85;21063;-89
2022/10/30 02:43:31;;;;;;;12.75;5.70;;;;;;;11.15;74.03;101540.09;1673438;85;21051;-90
2022/10/30 02:46:21;;;;;;;8.70;4.12;;;;;;;11.13;74.13;101558.50;1673266;85;21144;-91
2022/10/30 02:48:48;;;;;;;9.25;3.67;;;;;;;11.09;74.17;101550.91;1673138;85;21070;-91
2022/10/30 02:51:15;;;;;;;13.90;3.50;;;;;;;11.05;74.31;101545.03;1673221;85;22402;-90
2022/10/30 02:53:42;;;;;;;10.63;3.83;;;;;;;11.02;74.40;101540.98;1672911;84;21075;-90
2022/10/30 02:56:12;;;;;;;10.23;3.60;;;;;;;10.99;74.48;101536.91;1673090;85;21043;-90
2022/10/30 02:58:40;;;;;;;9.38;3.35;;;;;;;10.95;74.61;101560.05;1673227;85;21069;-90
2022/10/30 03:01:18;;;;;;;11.22;3.75;;;;;;;10.92;74.68;101559.03;1673242;85;21099;-90
2022/10/30 03:03:46;;;;;;;11.43;3.62;;;;;;;10.89;74.80;101554.56;1673148;85;21844;-89
2022/10/30 03:06:14;;;;;;;6.75;2.62;;;;;;;10.81;74.81;101543.75;1655481;85;21596;-90
2022/10/30 03:08:41;;;;;;;9.03;3.85;;;;;;;10.75;74.84;101547.45;1673371;85;21111;-89
2022/10/30 03:11:13;;;;;;;5.75;2.72;;;;;;;10.67;74.85;101556.81;1675101;84;21071;-90
2022/10/30 03:13:40;;;;;;;5.03;2.60;;;;;;;10.56;74.92;101559.03;1699705;83;21053;-89
2022/10/30 03:16:11;;;;;;;8.75;3.40;;;;;;;10.52;75.03;101570.29;1699940;84;21755;-89
2022/10/30 03:18:41;;;;;;;9.90;3.47;;;;;;;10.44;75.13;101570.00;1699578;83;21065;-89
2022/10/30 03:21:17;;;;;;;8.30;3.65;;;;;;;10.38;75.30;101563.58;1700056;84;21327;-89
2022/10/30 03:23:46;;;;;;;9.58;3.75;;;;;;;10.31;75.48;101558.52;1699927;83;21878;-89
2022/10/30 03:26:13;;;;;;;9.78;3.75;;;;;;;10.26;75.57;101574.08;1699901;84;21045;-89
2022/10/30 03:28:40;;;;;;;10.98;4.60;;;;;;;10.22;75.60;101574.80;1699669;84;22692;-90
2022/10/30 03:31:12;;;;;;;8.45;4.37;;;;;;;10.17;75.63;101571.50;1699810;84;20998;-89
2022/10/30 03:33:39;;;;;;;10.10;4.45;;;;;;;10.11;75.68;101573.47;1699947;83;21617;-89
2022/10/30 03:36:12;;;;;;;9.50;4.28;;;;;;;10.07;75.80;101566.30;1699980;84;21043;-89
2022/10/30 03:38:39;;;;;;;10.40;3.83;;;;;;;10.03;75.86;101563.08;1699697;83;21020;-89
2022/10/30 03:41:06;;;;;;;13.28;4.00;;;;;;;9.98;75.93;101567.24;1699858;83;21767;-90
2022/10/30 03:43:34;;;;;;;8.80;3.70;;;;;;;9.92;75.95;101579.73;1699861;83;21570;-89
2022/10/30 03:46:01;;;;;;;8.18;3.65;;;;;;;9.88;76.00;101583.07;1699998;83;21613;-89
2022/10/30 03:48:28;;;;;;;10.75;4.47;;;;;;;9.82;76.04;101560.05;1699850;84;21690;-89
2022/10/30 03:50:57;;;;;;;11.48;3.83;;;;;;;9.79;76.16;101555.08;1695311;83;21148;-89
2022/10/30 03:53:31;;;;;;;11.35;4.10;;;;;;;9.75;76.25;101563.26;1714422;82;21780;-89
2022/10/30 03:55:59;;;;;;;;;;;;;;;9.69;76.31;101577.05;1726948;82;21138;-87
2022/10/30 03:58:27;;;;;;;8.30;3.47;;;;;;;9.66;76.44;101582.59;1724334;83;20192;-87
2022/10/30 04:00:53;;;;;;;6.37;3.60;;;;;;;9.62;76.55;101587.23;1724561;83;21157;-87
2022/10/30 04:03:20;;;;;;;8.40;3.27;;;;;;;9.59;76.69;101584.47;1724690;83;21241;-87
2022/10/30 04:05:49;;;;;;;7.85;3.10;;;;;;;9.54;76.70;101582.97;1724424;83;21853;-87
2022/10/30 04:08:17;;;;;;;9.70;4.30;;;;;;;9.53;76.88;101579.85;1724678;83;21102;-87
2022/10/30 04:10:44;;;;;;;7.97;3.47;;;;;;;9.51;77.03;101577.16;1724700;82;21047;-87
2022/10/30 04:13:15;;;;;;;8.00;4.67;;;;;;;9.51;77.07;101578.89;1703909;83;21027;-87
2022/10/30 04:15:41;;;;;;;9.28;4.65;;;;;;;9.47;77.13;101568.66;1724883;82;21114;-87
2022/10/30 04:18:13;;;;;;;14.30;4.95;;;;;;;9.48;77.30;101574.41;1724837;83;22050;-87
2022/10/30 04:20:40;;;;;;;7.35;4.97;;;;;;;9.48;77.35;101577.05;1724541;83;21027;-87
2022/10/30 04:23:09;;;;;;;7.70;3.55;;;;;;;9.46;77.49;101573.45;1724803;82;22210;-87
2022/10/30 04:25:36;;;;;;;12.98;4.17;;;;;;;9.47;77.51;101573.91;1724763;82;21031;-87
2022/10/30 04:28:03;;;;;;;7.20;4.20;;;;;;;9.47;77.55;101577.86;1724936;82;21273;-87
2022/10/30 04:30:35;;;;;;;8.28;3.80;;;;;;;9.44;77.50;101579.06;1724665;83;21810;-86
2022/10/30 04:33:04;;;;;;;9.78;3.67;;;;;;;9.42;77.51;101584.67;1724800;83;21081;-87
2022/10/30 04:35:32;;;;;;;9.43;3.75;;;;;;;9.42;77.74;101579.42;1724664;83;21055;-87
2022/10/30 04:38:02;;;;;;;10.35;3.83;;;;;;;9.43;77.89;101578.56;1724733;82;21093;-87
2022/10/30 04:40:33;;;;;;;9.93;4.12;;;;;;;9.45;77.87;101578.64;1724618;83;21074;-87
2022/10/30 04:43:01;;;;;;;7.97;3.90;;;;;;;9.46;77.91;101576.08;1704566;83;21762;-87
2022/10/30 04:45:28;;;;;;;7.53;3.33;;;;;;;9.49;78.00;101574.88;1725245;81;21050;-87
2022/10/30 04:48:13;;;;;;;7.40;3.30;;;;;;;9.51;78.06;101575.84;1725452;82;21070;-87
2022/10/30 04:50:40;;;;;;;5.75;2.90;;;;;;;9.55;78.05;101590.01;1720523;82;21086;-87
2022/10/30 04:53:15;;;;;;;9.70;3.62;;;;;;;9.56;78.01;101589.62;1726820;82;21038;-87
2022/10/30 04:55:44;;;;;;;11.28;3.85;;;;;;;9.57;78.06;101587.45;1729785;82;22508;-87
2022/10/30 04:58:12;;;;;;;8.00;2.90;;;;;;;9.58;78.03;101582.69;1729771;82;21058;-87
2022/10/30 05:00:40;;;;;;;7.90;3.72;;;;;;;9.57;78.04;101590.97;1729847;82;21129;-87
2022/10/30 05:03:06;;;;;;;9.13;4.12;;;;;;;9.55;78.04;101590.01;1697900;82;21580;-87
2022/10/30 05:05:33;;;;;;;8.45;3.92;;;;;;;9.54;78.08;101597.00;1730089;82;21597;-87
2022/10/30 05:08:00;;;;;;;11.38;4.03;;;;;;;9.54;78.16;101598.32;1730090;82;21829;-87
2022/10/30 05:10:27;;;;;;;4.62;3.35;;;;;;;9.56;78.17;101598.81;1730148;82;21073;-86
2022/10/30 05:12:54;;;;;;;5.12;3.33;;;;;;;9.56;78.22;101598.81;1729682;82;21041;-87
2022/10/30 05:15:21;;;;;;;8.63;3.67;;;;;;;9.55;78.19;101600.52;1730052;82;21129;-86
2022/10/30 05:17:54;;;;;;;12.58;4.10;;;;;;;9.53;78.21;101597.86;1729620;82;21109;-87
2022/10/30 05:20:21;;;;;;;11.05;4.60;;;;;;;9.52;78.25;101599.98;1729998;82;21768;-88
2022/10/30 05:22:55;;;;;;;13.00;3.92;;;;;;;9.51;78.25;101602.13;1729785;82;21046;-88
2022/10/30 05:25:23;;;;;;;9.33;3.98;;;;;;;9.50;78.25;101595.09;1729905;82;21075;-88
2022/10/30 05:27:49;;;;;;;10.98;4.25;;;;;;;9.48;78.27;101595.44;1729943;82;21053;-88
2022/10/30 05:30:16;;;;;;;8.23;3.85;;;;;;;9.46;78.34;101595.79;1729860;82;21030;-87
2022/10/30 05:32:43;;;;;;;7.85;4.42;;;;;;;9.47;78.40;101589.69;1729922;82;22503;-87
2022/10/30 05:35:10;;;;;;;8.58;4.50;;;;;;;9.48;78.48;101587.98;1729810;82;21082;-87
2022/10/30 05:37:37;;;;;;;10.15;4.62;;;;;;;9.49;78.53;101586.70;1729762;82;21608;-87
2022/10/30 05:40:05;;;;;;;11.22;4.53;;;;;;;9.52;78.68;101588.16;1729950;82;21575;-87
2022/10/30 05:42:32;;;;;;;12.25;4.53;;;;;;;9.53;78.71;101582.09;1730120;82;21042;-87
2022/10/30 05:44:58;;;;;;;9.70;4.15;;;;;;;9.57;78.77;101574.31;1729998;82;21756;-87
2022/10/30 05:47:25;;;;;;;10.05;4.40;;;;;;;9.61;78.85;101574.52;1729782;82;21058;-87
2022/10/30 05:49:52;;;;;;;10.78;4.65;;;;;;;9.64;78.84;101573.74;1730088;82;21073;-87
2022/10/30 05:52:19;;;;;;;8.43;3.87;;;;;;;9.68;78.91;101591.00;1729934;82;21050;-87
2022/10/30 05:54:46;;;;;;;12.18;4.40;;;;;;;9.72;78.95;101594.27;1725577;82;21046;-87
2022/10/30 05:57:13;;;;;;;10.30;4.05;;;;;;;9.76;78.93;101591.36;1725201;82;22040;-87
2022/10/30 05:59:40;;;;;;;10.65;4.33;;;;;;;9.79;78.97;101592.78;1725124;82;21085;-87
2022/10/30 06:02:07;;;;;;;8.15;4.12;;;;;;;9.81;78.91;101584.53;1725078;82;21042;-88
2022/10/30 06:04:34;;;;;;;9.00;4.40;;;;;;;9.86;79.00;101592.20;1725290;82;21082;-87
2022/10/30 06:07:00;;;;;;;11.43;4.67;;;;;;;9.90;78.98;101594.55;1725107;83;21097;-87
2022/10/30 06:09:27;;;;;;;12.05;4.92;;;;;;;9.96;79.02;101595.22;1725250;82;21702;-87
2022/10/30 06:11:54;;;;;;;7.75;4.03;;;;;;;10.01;79.02;101590.63;1725115;82;21240;-87
2022/10/30 06:14:21;;;;;;;12.93;4.35;;;;;;;10.01;79.05;101577.90;1725203;83;21073;-87
2022/10/30 06:16:48;;;;;;;10.45;4.50;;;;;;;10.12;79.03;101585.38;1724902;83;21077;-87
2022/10/30 06:19:15;;;;;;;14.20;4.78;;;;;;;10.18;79.04;101590.41;1725321;82;21031;-87
2022/10/30 06:21:42;;;;;;;7.97;4.30;;;;;;;10.23;79.11;101595.02;1725105;82;22605;-87
2022/10/30 06:24:09;;;;;;;14.93;4.67;;;;;;;10.30;79.11;101594.47;1724887;83;21094;-87
2022/10/30 06:26:37;;;;;;;11.08;4.17;;;;;;;10.39;79.07;101587.77;1725338;82;22143;-87
2022/10/30 06:29:03;;;;;;;11.63;4.45;;;;;;;10.46;79.09;101591.12;1725386;82;21540;-87
2022/10/30 06:31:31;;;;;;;11.25;4.33;;;;;;;10.55;79.08;101598.05;1725142;82;21567;-87
2022/10/30 06:33:57;;;;;;;8.50;4.70;;;;;;;10.64;79.03;101597.49;1725124;83;21799;-87
2022/10/30 06:36:24;;;;;;;12.40;4.95;;;;;;;10.73;79.09;101599.59;1726288;82;21046;-87
2022/10/30 06:38:51;;;;;;;10.70;4.50;;;;;;;10.82;79.10;101605.20;1730305;82;21064;-87
2022/10/30 06:41:18;;;;;;;8.38;4.80;;;;;;;10.92;79.07;101602.06;1730404;82;21082;-87
2022/10/30 06:43:45;;;;;;;10.65;4.87;;;;;;;11.03;79.03;101595.88;1730472;82;21061;-87
2022/10/30 06:46:12;;;;;;;12.37;4.90;;;;;;;11.12;78.97;101605.88;1730443;82;21759;-87
2022/10/30 06:48:41;;;;;;;14.75;5.70;;;;;;;11.19;78.76;101607.89;1726688;82;21106;-87
2022/10/30 06:51:08;;;;;;;11.90;5.20;;;;;;;11.20;78.67;101603.97;1724524;83;21011;-87
2022/10/30 06:53:35;;;;;;;12.78;5.62;;;;;;;11.29;78.75;101602.09;1725453;82;21066;-89
2022/10/30 06:56:02;;;;;;;12.35;5.05;;;;;;;11.38;78.63;101598.91;1725587;82;21422;-89
2022/10/30 06:58:29;;;;;;;10.50;5.22;;;;;;;11.41;78.54;101608.22;1704888;83;21784;-89
2022/10/30 07:01:05;;;;;;;14.33;5.08;;;;;;;11.45;78.54;101607.08;1725872;82;21113;-89
2022/10/30 07:03:32;;;;;;;11.10;4.83;;;;;;;11.51;78.54;101615.63;1725734;82;21045;-89
2022/10/30 07:05:59;;;;;;;10.85;4.50;;;;;;;11.61;78.52;101616.83;1725503;82;21133;-89
2022/10/30 07:08:26;;;;;;;10.78;4.80;;;;;;;11.71;78.62;101625.52;1725893;83;21159;-91
2022/10/30 07:10:57;;;;;;;8.20;4.92;;;;;;;11.82;78.61;101616.27;1725667;83;21713;-90
2022/10/30 07:13:27;;;;;;;11.85;4.47;;;;;;;11.94;78.47;101620.19;1724773;82;21082;-89
2022/10/30 07:15:54;;;;;;;9.03;5.03;;;;;;;12.01;78.35;101626.13;1725206;82;21082;-90
2022/10/30 07:18:20;;;;;;;11.95;5.05;;;;;;;12.06;78.36;101617.94;1724964;82;21105;-90
2022/10/30 07:20:48;;;;;;;7.55;4.85;;;;;;;12.16;78.38;101617.81;1724797;83;21054;-89
2022/10/30 07:23:14;;;;;;;10.72;4.87;;;;;;;12.24;78.26;101626.89;1680782;83;22436;-89
2022/10/30 07:25:41;;;;;;;11.12;5.22;;;;;;;12.30;78.19;101627.08;1724980;82;21050;-89
2022/10/30 07:28:09;;;;;;;7.37;4.60;;;;;;;12.40;78.21;101626.52;1724808;83;21050;-89
2022/10/30 07:30:36;;;;;;;8.50;4.60;;;;;;;12.51;78.13;101629.93;1725018;82;21126;-89
2022/10/30 07:33:05;;;;;;;7.17;4.83;;;;;;;12.59;78.04;101633.69;1725028;82;21338;-89
2022/10/30 07:35:34;;;;;;;12.73;4.67;;;;;;;12.67;77.90;101640.52;1724919;83;21799;-90
2022/10/30 07:38:08;;;;;;;10.43;4.75;;;;;;;12.72;77.75;101642.46;1704734;83;21082;-89
2022/10/30 07:40:35;;;;;;;10.13;4.97;;;;;;;12.74;77.50;101648.68;1725069;83;21066;-89
2022/10/30 07:43:03;;;;;;;15.40;5.90;;;;;;;12.79;77.43;101640.91;1725430;82;21415;-90
2022/10/30 07:45:33;;;;;;;8.25;4.03;;;;;;;12.88;77.46;101637.23;1725876;82;21154;-90
2022/10/30 07:48:01;;;;;;;9.68;4.42;;;;;;;12.99;77.55;101638.44;1725477;82;21790;-89
2022/10/30 07:50:31;;;;;;;7.78;4.55;;;;;;;13.15;77.61;101639.77;1725963;83;21054;-90
2022/10/30 07:52:58;;;;;;;15.43;5.05;;;;;;;13.33;77.60;101638.55;1725800;82;21066;-90
2022/10/30 07:55:31;;;;;;;10.48;4.70;;;;;;;13.47;77.31;101645.09;1729231;82;21547;-89
2022/10/30 07:57:58;;;;;;;9.83;5.17;;;;;;;13.51;76.94;101642.11;1730483;82;21148;-90
2022/10/30 08:00:25;;;;;;;12.23;4.58;;;;;;;13.54;76.80;101647.50;1730407;82;21763;-90
2022/10/30 08:03:03;;;;;;;9.63;4.47;;;;;;;13.63;76.88;101642.86;1730175;82;21026;-90
2022/10/30 08:05:30;;;;;;;14.35;4.60;;;;;;;13.74;76.72;101643.64;1730578;82;21073;-90
2022/10/30 08:08:09;;;;;;;12.13;5.40;;;;;;;13.78;76.57;101636.23;1730369;82;21089;-89
2022/10/30 08:10:36;;;;;;;11.60;4.90;;;;;;;13.91;76.59;101637.45;1730577;82;21065;-89
2022/10/30 08:13:04;;;;;;;10.28;5.35;;;;;;;14.05;76.56;101643.52;1730020;82;21808;-88
2022/10/30 08:15:31;;;;;;;10.05;5.05;;;;;;;14.19;76.48;101633.74;1729826;82;21046;-88
2022/10/30 08:17:58;;;;;;;13.13;5.62;;;;;;;14.36;76.39;101638.12;1729948;82;21570;-87
2022/10/30 08:20:25;;;;;;;14.20;6.05;;;;;;;14.50;76.23;101631.80;1730147;82;21147;-87
2022/10/30 08:22:54;;;;;;;9.20;4.60;;;;;;;14.57;75.89;101627.15;1729749;82;21055;-88
2022/10/30 08:25:25;;;;;;;12.05;5.85;;;;;;;14.64;75.61;101625.55;1730065;82;21764;-87
2022/10/30 08:27:55;;;;;;;10.32;5.10;;;;;;;14.66;75.38;101632.18;1729813;82;21563;-87
2022/10/30 08:30:23;;;;;;;9.58;4.45;;;;;;;14.71;75.34;101631.86;1729714;82;21117;-87
2022/10/30 08:32:51;;;;;;;8.83;4.85;;;;;;;14.75;75.30;101629.73;1729734;82;21614;-87
2022/10/30 08:35:17;;;;;;;12.30;5.22;;;;;;;14.82;75.17;101617.52;1697691;82;21606;-87
2022/10/30 08:37:44;;;;;;;12.58;4.50;;;;;;;14.84;74.95;101622.42;1729933;82;21740;-87
2022/10/30 08:40:11;;;;;;;10.85;5.33;;;;;;;14.85;74.82;101625.12;1730858;82;21048;-87
2022/10/30 08:42:38;;;;;;;10.68;4.78;;;;;;;14.84;74.57;101629.94;1733913;82;21126;-87
2022/10/30 08:45:06;;;;;;;12.20;4.95;;;;;;;14.77;74.43;101616.08;1733544;82;21255;-88
2022/10/30 08:47:33;;;;;;;11.73;4.50;;;;;;;14.74;74.43;101615.59;1733722;82;21143;-88
2022/10/30 08:50:00;;;;;;;9.55;4.67;;;;;;;14.72;74.33;101621.73;1733726;82;21745;-87
2022/10/30 08:52:28;;;;;;;9.90;4.28;;;;;;;14.69;74.28;101616.36;1733429;82;21032;-87
2022/10/30 08:54:55;;;;;;;7.35;4.37;;;;;;;14.65;74.31;101614.07;1728488;82;21072;-87
2022/10/30 08:57:22;;;;;;;7.65;3.92;;;;;;;14.62;74.22;101615.75;1723453;83;21261;-88
2022/10/30 08:59:49;;;;;;;8.13;4.45;;;;;;;14.58;74.19;101618.36;1723362;83;21075;-87
2022/10/30 09:02:16;;;;;;;10.35;4.03;;;;;;;14.58;74.25;101609.08;1723832;83;21767;-87
2022/10/30 09:04:43;;;;;;;6.10;3.92;;;;;;;14.62;74.16;101620.64;1723472;83;21030;-87
2022/10/30 09:07:10;;;;;;;7.30;3.95;;;;;;;14.64;73.82;101627.28;1723991;83;21072;-87
2022/10/30 09:09:37;;;;;;;6.25;3.83;;;;;;;14.64;73.71;101633.50;1723793;83;21052;-87
2022/10/30 09:12:04;;;;;;;14.78;4.05;;;;;;;14.66;73.36;101626.87;1724327;82;21793;-87
2022/10/30 09:14:31;;;;;;;9.78;3.95;;;;;;;14.69;73.30;101631.82;1725378;82;21747;-88
2022/10/30 09:16:59;;;;;;;6.33;3.37;;;;;;;14.72;73.17;101621.30;1725482;82;21182;-88
2022/10/30 09:19:27;;;;;;;9.43;4.00;;;;;;;14.78;73.21;101620.09;1725450;83;21089;-88
2022/10/30 09:21:54;;;;;;;7.87;3.40;;;;;;;14.89;73.11;101625.64;1725398;82;21062;-87
2022/10/30 09:24:21;;;;;;;8.05;4.30;;;;;;;15.00;72.89;101632.50;1725430;83;21073;-87
2022/10/30 09:26:48;;;;;;;5.97;3.50;;;;;;;15.07;72.51;101625.14;1724923;82;21793;-87
2022/10/30 09:29:14;;;;;;;10.63;3.55;;;;;;;15.16;72.52;101627.98;1725305;82;21179;-87
2022/10/30 09:31:41;;;;;;;5.75;3.33;;;;;;;15.29;72.39;101633.52;1725220;83;21292;-87
2022/10/30 09:34:09;;;;;;;5.65;3.10;;;;;;;15.42;72.14;101641.28;1725229;83;21129;-87
2022/10/30 09:36:35;;;;;;;5.03;2.67;;;;;;;15.51;71.87;101637.48;1725221;82;21034;-87
2022/10/30 09:39:04;;;;;;;8.33;3.20;;;;;;;15.63;71.70;101648.31;1724884;82;21062;-88
2022/10/30 09:41:54;;;;;;;8.03;3.35;;;;;;;15.70;71.20;101657.30;1725058;82;21093;-87
2022/10/30 09:44:51;;;;;;;7.92;3.20;;;;;;;15.77;71.06;101663.66;1724913;82;21096;-88
2022/10/30 09:47:35;;;;;;;6.78;2.98;;;;;;;15.80;70.52;101658.38;1724927;82;21086;-87
2022/10/30 09:50:24;;;;;;;;;;;;;;;15.83;70.36;101653.14;1728032;83;21665;-87
2022/10/30 09:53:02;;;;;;;10.35;4.33;;;;;;;15.95;70.32;101650.69;1724823;83;22663;-87
2022/10/30 09:55:37;;;;;;;6.25;3.45;;;;;;;16.04;70.06;101652.17;1727678;82;21509;-87
2022/10/30 09:58:31;;;;;;;6.22;3.35;;;;;;;16.03;69.65;101645.50;1729365;81;21094;-87
2022/10/30 10:01:26;;;;;;;5.90;3.17;;;;;;;16.04;69.64;101642.88;1728303;82;21272;-87
2022/10/30 10:04:36;;;;;;;13.95;9.70;;;;;;;16.10;69.72;101638.09;1729753;82;21930;-87
2022/10/30 10:07:08;;;;;;;4.35;3.37;;;;;;;16.18;69.49;101632.91;1729431;82;21789;-87
2022/10/30 10:09:36;;;;;;;5.90;2.95;;;;;;;16.18;69.18;101637.81;1729938;82;21070;-87
2022/10/30 10:12:15;;;;;;;5.08;3.02;;;;;;;16.21;69.20;101640.94;1729670;82;21058;-87
2022/10/30 10:14:44;;;;;;;6.50;3.12;;;;;;;16.24;69.16;101651.19;1729434;81;21078;-87
2022/10/30 10:17:14;;;;;;;5.30;3.02;;;;;;;16.24;68.90;101653.84;1729976;82;21069;-87
2022/10/30 10:20:00;;;;;;;5.22;3.35;;;;;;;16.25;68.98;101651.63;1729889;82;23059;-87
2022/10/30 10:22:43;;;;;;;5.33;3.20;;;;;;;16.26;68.88;101649.89;1730149;82;21105;-87
2022/10/30 10:25:13;;;;;;;6.00;3.85;;;;;;;16.28;68.79;101650.36;1730660;82;21047;-87
2022/10/30 10:28:04;;;;;;;5.30;3.50;;;;;;;16.27;68.61;101649.00;1730459;82;21069;-87
2022/10/30 10:30:38;;;;;;;6.97;2.70;;;;;;;16.28;68.49;101646.38;1730602;82;21070;-86
2022/10/30 10:33:35;;;;;;;5.62;2.58;;;;;;;16.31;68.52;101642.86;1729831;82;21891;-86
2022/10/30 10:36:48;;;;;;;7.30;2.77;;;;;;;16.30;68.41;101634.45;1729990;82;21105;-87
2022/10/30 10:39:39;;;;;;;7.40;3.25;;;;;;;16.33;68.29;101635.39;1730223;82;21066;-87
2022/10/30 10:42:31;;;;;;;4.87;2.80;;;;;;;16.34;68.13;101640.26;1730402;82;21400;-87
2022/10/30 10:45:18;;;;;;;4.60;2.67;;;;;;;16.37;68.11;101640.73;1729929;81;21093;-87
2022/10/30 10:48:09;;;;;;;6.25;3.35;;;;;;;16.37;67.94;101642.98;1730361;82;21816;-87
2022/10/30 10:50:49;;;;;;;6.08;3.12;;;;;;;16.38;67.90;101650.50;1730382;82;21027;-87
2022/10/30 10:53:36;;;;;;;5.28;2.92;;;;;;;16.36;67.75;101647.81;1730592;82;21042;-87
2022/10/30 10:56:03;;;;;;;8.30;3.00;;;;;;;16.32;67.67;101649.53;1724516;82;21579;-87
2022/10/30 10:58:35;;;;;;;6.10;3.40;;;;;;;16.29;67.74;101647.25;1723384;83;21070;-87
2022/10/30 11:01:03;;;;;;;6.87;3.60;;;;;;;16.24;67.69;101642.33;1723289;83;21813;-87
2022/10/30 11:03:51;;;;;;;9.58;3.72;;;;;;;16.19;67.69;101639.58;1714482;83;21074;-87
2022/10/30 11:06:30;;;;;;;6.75;3.67;;;;;;;16.19;67.70;101638.25;1723213;82;21537;-87
2022/10/30 11:09:18;;;;;;;5.40;3.20;;;;;;;16.26;67.83;101636.60;1723054;81;22167;-87
2022/10/30 11:11:50;;;;;;;7.85;3.50;;;;;;;16.31;67.79;101645.11;1719805;83;21114;-87
2022/10/30 11:14:21;;;;;;;7.70;3.67;;;;;;;16.31;67.95;101643.77;1710708;83;21818;-87
2022/10/30 11:17:09;;;;;;;5.65;3.55;;;;;;;16.33;68.06;101642.48;1709972;82;21035;-87
2022/10/30 11:19:36;;;;;;;6.15;3.90;;;;;;;16.35;68.06;101642.47;1682281;85;21006;-87
2022/10/30 11:22:03;;;;;;;8.45;3.55;;;;;;;16.29;67.94;101650.83;1658241;86;21603;-87
2022/10/30 11:24:31;;;;;;;5.60;3.52;;;;;;;16.26;68.00;101652.55;1658427;86;21073;-90
2022/10/30 11:27:27;;;;;;;6.78;3.80;;;;;;;16.23;67.80;101649.83;1658776;86;21966;-90
2022/10/30 11:30:04;;;;;;;5.75;3.17;;;;;;;16.21;68.00;101650.23;1719312;83;21000;-89
2022/10/30 11:32:33;;;;;;;7.80;3.22;;;;;;;16.21;67.97;101644.48;1719764;82;21059;-89
2022/10/30 11:35:11;;;;;;;5.42;3.50;;;;;;;16.24;68.13;101637.02;1719662;83;21146;-92
2022/10/30 11:37:40;;;;;;;10.53;3.87;;;;;;;16.26;68.08;101633.95;1719441;83;21568;-91
2022/10/30 11:40:22;;;;;;;8.30;3.52;;;;;;;16.28;68.03;101640.17;1719650;82;22449;-92
2022/10/30 11:43:01;;;;;;;5.22;3.37;;;;;;;16.31;67.96;101642.45;1719311;83;21076;-92
2022/10/30 11:45:33;;;;;;;7.83;4.00;;;;;;;16.35;67.80;101643.39;1719665;83;20997;-92
2022/10/30 11:48:00;;;;;;;7.87;3.40;;;;;;;16.35;67.75;101639.41;1719604;83;21131;-92